Time;durP1;ratioP1;P1;durP2;ratioP2;P2;SDS_P1;SDS_P2;PMS_P1;PMS_P2;Temp;Humidity;BMP_temperature;BMP_pressure;BME280_temperature;BME280_humidity;BME280_pressure;Samples;Min_cycle;Max_cycle;Signal;HPM_P1;HPM_P2
2022/10/21 00:00:52;;;;;;;1.38;1.00;;;19.20;50.60;;;;;;5135008;28;20055;-10
2022/10/21 00:03:19;;;;;;;0.80;0.80;;;19.10;50.60;;;;;;5134453;28;20074;-10
2022/10/21 00:05:45;;;;;;;1.33;1.00;;;19.20;50.60;;;;;;5134392;28;20352;-10
2022/10/21 00:08:11;;;;;;;1.17;1.00;;;19.10;50.50;;;;;;5134347;28;20062;-10
2022/10/21 00:10:36;;;;;;;0.82;0.82;;;19.20;50.60;;;;;;5134762;28;20043;-10
2022/10/21 00:13:02;;;;;;;1.23;1.00;;;19.10;50.50;;;;;;5134786;28;20047;-10
2022/10/21 00:15:27;;;;;;;1.17;1.08;;;19.10;50.50;;;;;;5134233;28;20600;-10
2022/10/21 00:17:53;;;;;;;1.15;0.98;;;19.20;50.60;;;;;;5134106;28;20047;-10
2022/10/21 00:20:20;;;;;;;1.25;1.15;;;19.10;50.60;;;;;;5134077;28;20055;-10
2022/10/21 00:22:46;;;;;;;1.08;0.93;;;19.20;50.60;;;;;;5134404;28;20043;-10
2022/10/21 00:25:13;;;;;;;1.35;1.10;;;19.10;50.50;;;;;;5134343;28;20104;-10
2022/10/21 00:27:38;;;;;;;1.63;1.40;;;19.10;50.50;;;;;;5133491;27;20043;-10
2022/10/21 00:30:06;;;;;;;1.30;1.20;;;19.10;50.60;;;;;;5133700;28;20111;-10
2022/10/21 00:32:31;;;;;;;1.13;0.95;;;19.10;50.60;;;;;;5133607;28;20059;-10
2022/10/21 00:34:57;;;;;;;1.25;0.98;;;19.10;50.60;;;;;;5133750;28;20059;-10
2022/10/21 00:37:23;;;;;;;0.82;0.82;;;19.10;50.60;;;;;;5133465;28;20043;-10
2022/10/21 00:39:50;;;;;;;1.10;1.00;;;19.10;50.60;;;;;;5133984;28;20123;-10
2022/10/21 00:42:19;;;;;;;0.80;0.80;;;19.10;50.60;;;;;;5133542;28;20046;-10
2022/10/21 00:45:03;;;;;;;1.17;1.00;;;19.10;50.60;;;;;;5133669;28;20055;-10
2022/10/21 00:47:31;;;;;;;1.85;1.27;;;19.10;50.60;;;;;;5133823;28;20055;-10
2022/10/21 00:50:00;;;;;;;1.08;0.90;;;19.10;50.60;;;;;;5133552;28;20146;-10
2022/10/21 00:52:28;;;;;;;0.90;0.90;;;19.10;50.60;;;;;;5133440;28;20046;-10
2022/10/21 00:54:58;;;;;;;1.02;0.85;;;19.10;50.60;;;;;;5133494;28;20050;-10
2022/10/21 00:57:25;;;;;;;0.85;0.85;;;19.10;50.60;;;;;;5133595;28;20426;-10
2022/10/21 00:59:56;;;;;;;1.25;1.15;;;19.10;50.60;;;;;;5133459;28;20078;-10
2022/10/21 01:02:22;;;;;;;1.20;1.10;;;19.10;50.60;;;;;;5133699;28;20067;-10
2022/10/21 01:04:52;;;;;;;1.08;1.00;;;19.10;50.60;;;;;;5133290;28;20054;-10
2022/10/21 01:07:18;;;;;;;1.20;1.00;;;19.10;50.60;;;;;;5133247;28;20054;-10
2022/10/21 01:09:44;;;;;;;1.00;1.00;;;19.10;50.60;;;;;;5133490;28;20059;-10
2022/10/21 01:12:26;;;;;;;1.08;0.98;;;19.10;50.60;;;;;;5133321;28;20050;-10
2022/10/21 01:14:56;;;;;;;1.13;0.85;;;19.10;50.60;;;;;;5133314;28;20047;-10
2022/10/21 01:17:43;;;;;;;0.80;0.80;;;19.10;50.60;;;;;;5133118;28;20564;-10
2022/10/21 01:20:19;;;;;;;1.08;0.75;;;19.10;50.60;;;;;;5133207;28;20055;-10
2022/10/21 01:23:04;;;;;;;1.52;1.02;;;19.10;50.60;;;;;;5133923;28;20047;-10
2022/10/21 01:25:57;;;;;;;1.20;1.10;;;19.10;50.60;;;;;;5133122;28;20047;-10
2022/10/21 01:28:55;;;;;;;1.17;1.08;;;19.10;50.60;;;;;;5133259;28;20547;-10
2022/10/21 01:31:33;;;;;;;0.90;0.90;;;19.10;50.60;;;;;;5132281;28;20050;-10
2022/10/21 01:34:25;;;;;;;0.98;0.98;;;19.10;50.60;;;;;;5133334;28;20039;-10
2022/10/21 01:36:59;;;;;;;1.00;1.00;;;19.10;50.60;;;;;;5121841;28;20058;-10
2022/10/21 01:39:40;;;;;;;0.88;0.88;;;19.10;50.60;;;;;;5135356;27;20043;-10
2022/10/21 01:42:33;;;;;;;1.20;1.10;;;19.10;50.60;;;;;;5137220;28;20047;-10
2022/10/21 01:45:05;;;;;;;1.23;1.13;;;19.10;50.60;;;;;;5137070;28;20371;-10
2022/10/21 01:47:42;;;;;;;1.33;0.93;;;19.10;50.60;;;;;;5136466;28;20047;-10
2022/10/21 01:50:18;;;;;;;0.90;0.90;;;19.10;50.60;;;;;;5136586;28;20546;-10
2022/10/21 01:52:48;;;;;;;1.10;1.00;;;19.10;50.60;;;;;;5136966;28;20107;-10
2022/10/21 01:55:20;;;;;;;1.10;1.00;;;19.10;50.60;;;;;;5136598;28;20479;-10
2022/10/21 01:57:51;;;;;;;1.20;1.10;;;19.10;50.60;;;;;;5136435;28;20483;-10
2022/10/21 02:00:17;;;;;;;1.30;0.98;;;19.10;50.60;;;;;;5136446;28;20054;-10
2022/10/21 02:02:48;;;;;;;1.20;1.10;;;19.10;50.60;;;;;;5136324;28;20058;-10
2022/10/21 02:05:24;;;;;;;0.90;0.90;;;19.10;50.70;;;;;;5136249;28;20134;-10
2022/10/21 02:07:49;;;;;;;0.90;0.90;;;19.10;50.60;;;;;;5117638;28;20470;-10
2022/10/21 02:10:17;;;;;;;1.10;1.10;;;19.10;50.70;;;;;;5136289;28;20055;-10
2022/10/21 02:12:47;;;;;;;1.33;1.20;;;19.10;50.70;;;;;;5136188;28;20059;-10
2022/10/21 02:15:15;;;;;;;0.90;0.90;;;19.10;50.70;;;;;;5136179;28;20039;-10
2022/10/21 02:17:48;;;;;;;1.17;1.08;;;19.10;50.70;;;;;;5135852;28;20051;-10
2022/10/21 02:20:16;;;;;;;1.15;1.05;;;19.10;50.70;;;;;;5116227;28;20199;-10
2022/10/21 02:22:45;;;;;;;1.30;1.20;;;19.10;50.70;;;;;;5136179;28;20455;-10
2022/10/21 02:25:21;;;;;;;1.83;1.08;;;19.10;50.70;;;;;;5135992;28;20047;-10
2022/10/21 02:27:50;;;;;;;0.90;0.90;;;19.10;50.70;;;;;;5135823;28;20059;-10
2022/10/21 02:30:16;;;;;;;1.38;1.20;;;19.10;50.70;;;;;;5135847;28;20406;-10
2022/10/21 02:32:58;;;;;;;1.20;1.10;;;19.10;50.70;;;;;;5136002;28;20054;-10
2022/10/21 02:35:45;;;;;;;1.10;1.00;;;19.10;50.70;;;;;;5136140;28;20043;-10
2022/10/21 02:38:23;;;;;;;1.10;1.00;;;19.10;50.70;;;;;;5135874;28;20107;-11
2022/10/21 02:41:10;;;;;;;1.92;1.10;;;19.10;50.70;;;;;;5135835;28;20138;-10
2022/10/21 02:43:45;;;;;;;1.30;1.20;;;19.10;50.70;;;;;;5136019;28;20099;-10
2022/10/21 02:46:13;;;;;;;1.38;1.05;;;19.10;50.60;;;;;;5135945;28;20111;-10
2022/10/21 02:48:42;;;;;;;1.15;1.00;;;19.10;50.50;;;;;;5135846;28;20043;-10
2022/10/21 02:51:08;;;;;;;1.63;1.10;;;19.20;50.40;;;;;;5135526;27;20059;-10
2022/10/21 02:53:34;;;;;;;1.42;1.10;;;19.30;50.30;;;;;;5135391;28;20043;-10
2022/10/21 02:56:00;;;;;;;1.17;1.08;;;19.30;50.10;;;;;;5136021;28;20483;-10
2022/10/21 02:58:26;;;;;;;1.83;1.13;;;19.40;50.10;;;;;;5135846;28;20056;-10
2022/10/21 03:00:51;;;;;;;1.10;1.00;;;19.40;50.00;;;;;;5135771;28;20551;-10
2022/10/21 03:03:17;;;;;;;1.80;1.20;;;19.40;49.90;;;;;;5135308;28;20067;-10
2022/10/21 03:05:42;;;;;;;1.40;1.30;;;19.40;50.40;;;;;;5135599;28;20051;-10
2022/10/21 03:08:08;;;;;;;1.08;1.00;;;19.50;49.80;;;;;;5135055;28;20048;-10
2022/10/21 03:10:34;;;;;;;1.02;0.93;;;19.50;49.80;;;;;;5135932;28;20043;-10
2022/10/21 03:13:00;;;;;;;1.20;1.10;;;19.50;49.80;;;;;;5135108;28;20062;-10
2022/10/21 03:15:25;;;;;;;1.27;1.17;;;19.50;49.70;;;;;;5135416;28;20047;-10
2022/10/21 03:17:52;;;;;;;0.95;0.95;;;19.60;49.70;;;;;;5134934;28;20091;-10
2022/10/21 03:20:18;;;;;;;1.20;1.10;;;19.60;49.70;;;;;;5135366;28;20059;-10
2022/10/21 03:22:43;;;;;;;1.50;1.10;;;19.60;49.70;;;;;;5135015;28;20047;-10
2022/10/21 03:25:10;;;;;;;1.20;1.10;;;19.60;49.60;;;;;;5135031;28;20122;-10
2022/10/21 03:27:37;;;;;;;0.90;0.90;;;19.60;49.60;;;;;;5134924;28;20043;-10
2022/10/21 03:30:04;;;;;;;1.17;1.08;;;19.60;49.60;;;;;;5134596;28;20432;-10
2022/10/21 03:32:30;;;;;;;0.90;0.90;;;19.60;49.60;;;;;;5134978;28;20051;-10
2022/10/21 03:34:56;;;;;;;1.25;1.15;;;19.60;49.60;;;;;;5134622;28;20051;-10
2022/10/21 03:37:21;;;;;;;1.20;1.00;;;19.60;49.70;;;;;;5135233;28;20130;-10
2022/10/21 03:39:47;;;;;;;0.85;0.85;;;19.60;49.70;;;;;;5134491;28;20059;-10
2022/10/21 03:42:12;;;;;;;0.88;0.88;;;19.60;49.70;;;;;;5134605;28;20491;-10
2022/10/21 03:44:38;;;;;;;1.27;1.17;;;19.60;49.70;;;;;;5134671;28;20099;-10
2022/10/21 03:47:04;;;;;;;1.10;1.00;;;19.60;49.70;;;;;;5134620;28;20050;-10
2022/10/21 03:49:29;;;;;;;1.60;1.13;;;19.50;49.70;;;;;;5134435;28;20047;-10
2022/10/21 03:51:55;;;;;;;1.20;1.10;;;19.50;49.80;;;;;;5134762;28;20091;-10
2022/10/21 03:54:20;;;;;;;1.20;1.10;;;19.50;49.90;;;;;;5134516;28;20079;-10
2022/10/21 03:56:46;;;;;;;1.25;1.08;;;19.50;49.90;;;;;;5134566;28;20051;-10
2022/10/21 03:59:11;;;;;;;1.27;1.17;;;19.50;49.90;;;;;;5134331;28;20051;-10
2022/10/21 04:01:37;;;;;;;1.50;1.20;;;19.50;49.90;;;;;;5133892;27;20051;-10
2022/10/21 04:04:03;;;;;;;2.17;1.10;;;19.50;50.00;;;;;;5134485;28;20100;-10
2022/10/21 04:06:28;;;;;;;1.27;1.17;;;19.40;50.00;;;;;;5134663;28;20174;-10
2022/10/21 04:08:54;;;;;;;1.33;1.13;;;19.40;50.10;;;;;;5134307;28;20066;-10
2022/10/21 04:11:19;;;;;;;1.20;1.10;;;19.40;50.10;;;;;;5134561;28;20054;-10
2022/10/21 04:13:45;;;;;;;1.10;1.00;;;19.40;50.20;;;;;;5134146;28;20479;-10
2022/10/21 04:16:17;;;;;;;1.27;1.17;;;19.30;50.20;;;;;;5134521;28;20047;-10
2022/10/21 04:18:43;;;;;;;0.98;0.95;;;19.30;50.30;;;;;;5134468;28;20051;-10
2022/10/21 04:21:09;;;;;;;1.20;1.10;;;19.30;50.30;;;;;;5133869;28;20051;-10
2022/10/21 04:23:35;;;;;;;1.40;1.27;;;19.30;50.40;;;;;;5134171;28;20118;-10
2022/10/21 04:26:00;;;;;;;1.38;1.27;;;19.30;50.40;;;;;;5130201;28;20055;-10
2022/10/21 04:28:26;;;;;;;1.30;1.20;;;19.20;50.40;;;;;;5134323;28;20396;-10
2022/10/21 04:30:52;;;;;;;0.98;0.98;;;19.30;50.50;;;;;;5133962;28;20081;-10
2022/10/21 04:33:17;;;;;;;1.42;1.15;;;19.20;50.50;;;;;;5134201;28;20047;-10
2022/10/21 04:35:43;;;;;;;2.05;1.25;;;19.20;50.50;;;;;;5134504;28;20074;-10
2022/10/21 04:38:09;;;;;;;1.00;1.00;;;19.20;50.40;;;;;;5134177;28;20043;-10
2022/10/21 04:40:35;;;;;;;1.00;0.98;;;19.30;50.40;;;;;;5133894;28;20059;-10
2022/10/21 04:43:00;;;;;;;1.10;1.00;;;19.30;50.30;;;;;;5133722;28;20047;-10
2022/10/21 04:45:26;;;;;;;1.17;1.08;;;19.40;50.30;;;;;;5133796;28;20054;-10
2022/10/21 04:47:52;;;;;;;1.65;1.10;;;19.40;50.20;;;;;;5134359;28;20047;-10
2022/10/21 04:50:18;;;;;;;1.20;1.10;;;19.40;50.10;;;;;;5133651;28;20055;-10
2022/10/21 04:52:45;;;;;;;1.40;1.13;;;19.50;50.00;;;;;;5134061;28;20104;-10
2022/10/21 04:55:11;;;;;;;1.23;1.13;;;19.50;50.00;;;;;;5133634;28;20505;-10
2022/10/21 04:57:38;;;;;;;1.45;1.35;;;19.50;49.90;;;;;;5133905;28;20119;-10
2022/10/21 05:00:05;;;;;;;1.55;1.20;;;19.50;49.80;;;;;;5133499;28;20051;-10
2022/10/21 05:02:31;;;;;;;1.20;1.10;;;19.50;49.80;;;;;;5133627;28;20055;-10
2022/10/21 05:04:57;;;;;;;1.17;1.00;;;19.50;49.80;;;;;;5133272;28;20403;-10
2022/10/21 05:07:22;;;;;;;1.38;1.27;;;19.50;49.80;;;;;;5133543;28;20384;-10
2022/10/21 05:09:48;;;;;;;1.30;1.20;;;19.50;49.80;;;;;;5133872;28;20058;-10
2022/10/21 05:12:13;;;;;;;1.20;1.10;;;19.60;49.70;;;;;;5134302;27;20090;-10
2022/10/21 05:14:39;;;;;;;1.52;1.20;;;19.60;49.70;;;;;;5137316;28;20074;-9
2022/10/21 05:17:05;;;;;;;1.40;1.20;;;19.60;49.70;;;;;;5137045;28;20066;-10
2022/10/21 05:19:31;;;;;;;1.20;1.10;;;19.60;49.70;;;;;;5137538;28;20050;-10
2022/10/21 05:21:57;;;;;;;1.38;1.27;;;19.60;49.70;;;;;;5136952;28;20103;-10
2022/10/21 05:24:22;;;;;;;1.55;0.90;;;19.50;49.70;;;;;;5136929;28;20047;-10
2022/10/21 05:26:48;;;;;;;1.30;1.15;;;19.50;49.70;;;;;;5136922;28;20130;-10
2022/10/21 05:29:13;;;;;;;1.23;1.13;;;19.50;49.80;;;;;;5136873;28;20055;-10
2022/10/21 05:31:39;;;;;;;1.50;1.40;;;19.50;49.80;;;;;;5136904;28;20047;-10
2022/10/21 05:34:04;;;;;;;1.20;1.10;;;19.50;49.90;;;;;;5136708;28;20483;-10
2022/10/21 05:36:30;;;;;;;1.10;1.00;;;19.50;49.90;;;;;;5137389;28;20382;-10
2022/10/21 05:38:56;;;;;;;1.55;1.15;;;19.50;49.90;;;;;;5136598;28;20406;-10
2022/10/21 05:41:21;;;;;;;0.98;0.95;;;19.50;49.90;;;;;;5137313;28;20043;-10
2022/10/21 05:43:47;;;;;;;1.30;1.20;;;19.50;50.00;;;;;;5136713;28;20055;-10
2022/10/21 05:46:12;;;;;;;1.27;1.17;;;19.50;50.00;;;;;;5136597;28;20063;-10
2022/10/21 05:48:38;;;;;;;0.90;0.90;;;19.40;50.10;;;;;;5136819;28;20063;-10
2022/10/21 05:51:04;;;;;;;1.48;1.38;;;19.40;50.10;;;;;;5136568;28;20047;-10
2022/10/21 05:53:30;;;;;;;1.20;1.10;;;19.40;50.20;;;;;;5136398;28;20074;-10
2022/10/21 05:56:02;;;;;;;1.38;1.15;;;19.40;50.30;;;;;;5136385;28;20495;-10
2022/10/21 05:58:29;;;;;;;1.83;1.20;;;19.30;50.30;;;;;;5136442;28;20043;-10
2022/10/21 06:00:57;;;;;;;2.20;1.30;;;19.30;50.40;;;;;;5136620;28;20059;-10
2022/10/21 06:03:24;;;;;;;1.15;1.10;;;19.30;50.40;;;;;;5136319;28;20039;-10
2022/10/21 06:05:50;;;;;;;2.45;1.27;;;19.30;50.50;;;;;;5136486;28;20055;-10
2022/10/21 06:08:16;;;;;;;3.08;1.50;;;19.30;50.70;;;;;;5135957;28;20047;-10
2022/10/21 06:10:42;;;;;;;2.00;1.40;;;19.30;50.80;;;;;;5136308;28;20047;-10
2022/10/21 06:13:08;;;;;;;1.45;1.35;;;19.30;50.80;;;;;;5135938;28;20486;-10
2022/10/21 06:15:35;;;;;;;4.75;1.67;;;19.40;50.80;;;;;;5136353;28;20050;-10
2022/10/21 06:18:02;;;;;;;2.90;1.83;;;19.40;50.70;;;;;;5135898;28;20483;-10
2022/10/21 06:20:27;;;;;;;2.45;1.63;;;19.40;50.60;;;;;;5136217;28;20047;-10
2022/10/21 06:22:53;;;;;;;2.42;1.50;;;19.50;50.50;;;;;;5136182;28;20051;-10
2022/10/21 06:25:20;;;;;;;3.30;1.70;;;19.50;50.40;;;;;;5135227;27;20126;-10
2022/10/21 06:27:47;;;;;;;3.83;1.60;;;19.50;50.40;;;;;;5135732;28;20047;-10
2022/10/21 06:30:14;;;;;;;2.15;1.48;;;19.50;50.30;;;;;;5136110;28;20059;-10
2022/10/21 06:32:39;;;;;;;2.42;1.95;;;19.60;50.30;;;;;;5135965;28;20047;-10
2022/10/21 06:35:05;;;;;;;2.83;1.80;;;19.60;50.20;;;;;;5115640;28;20402;-10
2022/10/21 06:37:31;;;;;;;2.75;1.45;;;19.60;50.20;;;;;;5135376;28;20127;-10
2022/10/21 06:39:56;;;;;;;3.40;1.60;;;19.60;50.20;;;;;;5115379;28;20057;-10
2022/10/21 06:42:22;;;;;;;1.88;1.50;;;19.60;50.20;;;;;;5135304;28;20047;-10
2022/10/21 06:44:47;;;;;;;4.72;1.77;;;19.60;50.20;;;;;;5135071;28;20498;-10
2022/10/21 06:47:13;;;;;;;2.92;1.60;;;19.60;50.20;;;;;;5135011;28;20092;-11
2022/10/21 06:49:38;;;;;;;2.67;1.40;;;19.60;50.20;;;;;;5135511;28;20084;-10
2022/10/21 06:52:04;;;;;;;1.83;1.48;;;19.60;50.20;;;;;;5135394;28;20510;-10
2022/10/21 06:54:30;;;;;;;1.85;1.38;;;19.60;50.20;;;;;;5135357;28;20501;-10
2022/10/21 06:56:55;;;;;;;3.38;1.70;;;19.60;50.50;;;;;;5135532;28;20042;-10
2022/10/21 06:59:21;;;;;;;4.70;1.73;;;19.60;50.30;;;;;;5135260;28;20058;-10
2022/10/21 07:01:47;;;;;;;3.33;1.90;;;19.50;50.20;;;;;;5135847;28;20046;-10
2022/10/21 07:04:12;;;;;;;1.52;1.33;;;19.50;50.20;;;;;;5135627;28;20047;-10
2022/10/21 07:06:38;;;;;;;4.60;1.70;;;19.60;50.30;;;;;;5135738;28;20050;-10
2022/10/21 07:09:05;;;;;;;3.15;1.52;;;19.60;50.30;;;;;;5135535;28;20051;-10
2022/10/21 07:11:31;;;;;;;2.55;1.60;;;19.50;50.20;;;;;;5135112;28;20543;-10
2022/10/21 07:13:58;;;;;;;1.80;1.70;;;19.50;50.30;;;;;;5135072;28;20035;-10
2022/10/21 07:16:35;;;;;;;2.80;1.42;;;19.50;50.30;;;;;;5134954;28;20073;-10
2022/10/21 07:19:01;;;;;;;1.40;1.30;;;19.50;50.40;;;;;;5116579;28;20050;-10
2022/10/21 07:21:29;;;;;;;1.83;1.70;;;19.50;50.40;;;;;;5135006;28;20380;-10
2022/10/21 07:23:56;;;;;;;2.22;1.60;;;19.50;50.40;;;;;;5134983;28;20103;-10
2022/10/21 07:26:23;;;;;;;3.05;1.70;;;19.50;50.50;;;;;;5135007;28;20055;-10
2022/10/21 07:28:49;;;;;;;2.70;1.67;;;19.40;50.60;;;;;;5134459;28;20103;-10
2022/10/21 07:31:17;;;;;;;1.48;1.30;;;19.40;50.70;;;;;;5134876;28;20430;-10
2022/10/21 07:33:43;;;;;;;2.42;1.70;;;19.40;50.70;;;;;;5134692;28;20508;-10
2022/10/21 07:36:20;;;;;;;4.10;1.80;;;19.40;50.70;;;;;;5134011;27;20051;-10
2022/10/21 07:38:48;;;;;;;3.45;1.60;;;19.40;50.70;;;;;;5134463;28;20058;-10
2022/10/21 07:41:23;;;;;;;1.70;1.60;;;19.40;50.70;;;;;;5134794;28;20058;-10
2022/10/21 07:43:49;;;;;;;1.55;1.23;;;19.40;50.60;;;;;;5134771;28;20053;-12
2022/10/21 07:46:16;;;;;;;1.40;1.30;;;19.50;50.50;;;;;;5134868;28;20047;-11
2022/10/21 07:48:41;;;;;;;3.47;1.50;;;19.50;50.40;;;;;;5134746;28;20047;-11
2022/10/21 07:51:10;;;;;;;1.70;1.50;;;19.60;50.20;;;;;;5115886;28;20051;-11
2022/10/21 07:53:37;;;;;;;2.10;1.70;;;19.60;50.10;;;;;;5134694;28;20047;-11
2022/10/21 07:56:18;;;;;;;1.88;1.48;;;19.70;50.10;;;;;;5134734;28;20130;-11
2022/10/21 07:58:45;;;;;;;3.55;1.63;;;19.70;50.10;;;;;;5134749;28;20130;-11
2022/10/21 08:01:12;;;;;;;2.85;1.70;;;19.70;50.10;;;;;;5134461;28;20510;-11
2022/10/21 08:03:38;;;;;;;2.72;1.83;;;19.70;50.00;;;;;;5134186;28;20510;-11
2022/10/21 08:06:06;;;;;;;2.75;1.40;;;19.70;50.00;;;;;;5134201;28;20483;-11
2022/10/21 08:08:32;;;;;;;1.52;1.42;;;19.70;50.00;;;;;;5134137;28;20078;-12
2022/10/21 08:10:58;;;;;;;2.47;1.67;;;19.70;50.10;;;;;;5134646;28;20051;-11
2022/10/21 08:13:24;;;;;;;1.67;1.42;;;19.70;50.60;;;;;;5134750;28;20095;-11
2022/10/21 08:15:52;;;;;;;2.30;1.20;;;19.70;50.10;;;;;;5134389;28;20142;-11
2022/10/21 08:18:20;;;;;;;2.38;1.40;;;19.70;50.10;;;;;;5134184;28;20066;-11
2022/10/21 08:20:46;;;;;;;2.08;1.58;;;19.70;50.10;;;;;;5134161;28;20112;-11
2022/10/21 08:23:15;;;;;;;1.83;1.48;;;19.70;50.10;;;;;;5134148;28;20043;-11
2022/10/21 08:25:49;;;;;;;1.83;1.70;;;19.70;50.10;;;;;;5133821;28;20073;-11
2022/10/21 08:28:15;;;;;;;1.98;1.70;;;19.70;50.10;;;;;;5133914;28;20407;-11
2022/10/21 08:30:42;;;;;;;3.83;1.58;;;19.70;50.60;;;;;;5133933;28;20059;-11
2022/10/21 08:33:08;;;;;;;1.88;1.52;;;19.70;50.00;;;;;;5133789;28;20405;-11
2022/10/21 08:35:34;;;;;;;2.60;1.58;;;19.70;50.00;;;;;;5134019;28;20050;-11
2022/10/21 08:38:00;;;;;;;2.08;1.52;;;19.70;50.00;;;;;;5133678;28;20055;-11
2022/10/21 08:40:40;;;;;;;1.60;1.50;;;19.70;50.10;;;;;;5133848;28;20058;-11
2022/10/21 08:43:27;;;;;;;1.65;1.35;;;19.70;50.20;;;;;;5133848;28;20089;-12
2022/10/21 08:46:17;;;;;;;2.20;1.25;;;19.70;50.20;;;;;;5133098;28;20492;-12
2022/10/21 08:48:50;;;;;;;4.35;1.75;;;19.60;50.20;;;;;;5133518;27;20058;-11
2022/10/21 08:51:27;;;;;;;2.42;1.73;;;19.60;50.50;;;;;;5133929;28;20103;-11
2022/10/21 08:53:57;;;;;;;2.80;1.50;;;19.60;50.70;;;;;;5133677;28;20047;-11
2022/10/21 08:56:23;;;;;;;2.50;1.65;;;19.70;50.60;;;;;;5115032;28;20047;-11
2022/10/21 08:58:51;;;;;;;4.30;1.77;;;19.60;50.50;;;;;;5133488;28;20059;-11
2022/10/21 09:01:33;;;;;;;3.80;2.00;;;19.60;50.60;;;;;;5133332;28;20059;-11
2022/10/21 09:04:01;;;;;;;5.45;2.05;;;19.60;50.60;;;;;;5133403;28;20471;-11
2022/10/21 09:06:33;;;;;;;3.10;1.70;;;19.60;50.70;;;;;;5114962;28;20145;-11
2022/10/21 09:09:03;;;;;;;5.78;1.77;;;19.50;50.70;;;;;;5133702;28;20054;-11
2022/10/21 09:11:45;;;;;;;1.80;1.30;;;19.50;50.80;;;;;;5133097;28;20090;-11
2022/10/21 09:15:08;;;;;;;2.00;1.70;;;19.50;50.80;;;;;;5133237;28;20047;-11
2022/10/21 09:18:11;;;;;;;2.90;2.38;;;19.50;50.80;;;;;;5049948;28;20075;-11
2022/10/21 09:21:04;;;;;;;2.10;1.90;;;19.50;50.70;;;;;;5050224;28;20524;-11
2022/10/21 09:24:08;;;;;;;2.05;1.60;;;19.50;50.60;;;;;;5124800;28;20452;-10
2022/10/21 09:26:51;;;;;;;1.70;1.60;;;19.60;50.50;;;;;;5049847;28;20406;-10
2022/10/21 09:29:22;;;;;;;3.47;2.00;;;19.60;50.40;;;;;;5125564;28;20051;-10
2022/10/21 09:31:48;;;;;;;2.42;1.63;;;19.70;50.40;;;;;;5133450;28;20167;-10
2022/10/21 09:34:28;;;;;;;2.80;1.80;;;19.70;50.40;;;;;;5133269;28;20111;-10
2022/10/21 09:36:56;;;;;;;2.17;1.88;;;19.70;50.30;;;;;;5133134;28;20051;-10
2022/10/21 09:39:32;;;;;;;2.10;1.90;;;19.70;50.20;;;;;;5133032;28;20059;-10
2022/10/21 09:41:58;;;;;;;2.17;1.98;;;19.70;50.20;;;;;;5133349;28;20062;-11
2022/10/21 09:44:24;;;;;;;2.47;2.00;;;19.80;50.10;;;;;;5133073;28;20047;-10
2022/10/21 09:46:52;;;;;;;2.10;1.90;;;19.80;50.10;;;;;;5132888;27;20088;-10
2022/10/21 09:49:30;;;;;;;2.17;1.80;;;19.80;50.10;;;;;;5132963;28;20456;-11
2022/10/21 09:52:03;;;;;;;2.85;2.00;;;19.80;50.20;;;;;;5132878;28;20047;-10
2022/10/21 09:54:36;;;;;;;2.03;1.70;;;19.80;50.70;;;;;;5133088;28;20078;-10
2022/10/21 09:57:17;;;;;;;3.35;2.00;;;19.80;50.20;;;;;;5132933;28;20103;-11
2022/10/21 10:00:01;;;;;;;1.95;1.77;;;19.70;50.10;;;;;;5113967;28;20055;-10
2022/10/21 10:02:37;;;;;;;1.80;1.70;;;19.70;50.20;;;;;;5136069;28;20577;-10
2022/10/21 10:05:42;;;;;;;3.05;1.80;;;19.70;50.20;;;;;;5135912;28;20078;-10
2022/10/21 10:08:29;;;;;;;2.80;1.90;;;19.70;50.20;;;;;;5136039;28;20487;-10
2022/10/21 10:11:21;;;;;;;2.38;1.58;;;19.70;50.20;;;;;;5136287;28;20142;-12
2022/10/21 10:13:50;;;;;;;2.30;1.70;;;19.70;50.20;;;;;;5131735;28;20039;-12
2022/10/21 10:16:28;;;;;;;1.95;1.67;;;19.80;50.20;;;;;;5135746;28;20059;-12
2022/10/21 10:19:17;;;;;;;2.17;1.70;;;19.80;50.20;;;;;;5135986;28;20047;-12
2022/10/21 10:21:44;;;;;;;2.17;1.90;;;19.80;50.20;;;;;;5135891;28;20054;-12
2022/10/21 10:24:18;;;;;;;2.88;1.90;;;19.80;50.20;;;;;;5135765;28;20092;-12
2022/10/21 10:26:45;;;;;;;2.00;1.80;;;19.80;50.20;;;;;;5136103;28;20137;-12
2022/10/21 10:29:15;;;;;;;2.42;1.92;;;19.80;50.20;;;;;;5135630;28;20472;-12
2022/10/21 10:31:46;;;;;;;3.25;2.10;;;19.70;50.20;;;;;;5135891;28;20131;-12
2022/10/21 10:34:22;;;;;;;2.25;1.70;;;19.70;50.30;;;;;;5135529;28;20046;-12
2022/10/21 10:36:49;;;;;;;2.67;1.98;;;19.70;50.30;;;;;;5135328;28;20047;-12
2022/10/21 10:39:21;;;;;;;2.15;1.95;;;19.70;50.40;;;;;;5135739;28;20059;-12
2022/10/21 10:41:50;;;;;;;2.65;1.77;;;19.70;50.40;;;;;;5135415;28;20078;-12
2022/10/21 10:44:28;;;;;;;2.58;2.00;;;19.70;50.40;;;;;;5135424;28;20043;-12
2022/10/21 10:46:57;;;;;;;2.40;2.20;;;19.70;50.50;;;;;;5135209;28;20054;-12
2022/10/21 10:49:24;;;;;;;5.03;2.03;;;19.70;50.50;;;;;;5135969;28;20372;-12
2022/10/21 10:52:09;;;;;;;1.90;1.70;;;19.70;50.50;;;;;;5135405;28;20054;-12
2022/10/21 10:54:39;;;;;;;2.13;1.75;;;19.70;50.50;;;;;;5135459;28;20039;-11
2022/10/21 10:57:12;;;;;;;3.17;1.95;;;19.70;50.50;;;;;;5135844;28;20141;-12
2022/10/21 10:59:37;;;;;;;4.00;1.75;;;19.70;50.50;;;;;;5135257;28;20069;-12
2022/10/21 11:02:40;;;;;;;2.55;1.80;;;19.70;50.50;;;;;;5134766;28;20454;-12
2022/10/21 11:05:18;;;;;;;2.58;2.00;;;19.70;50.50;;;;;;5103175;28;20086;-12
2022/10/21 11:07:46;;;;;;;2.17;1.80;;;19.70;50.50;;;;;;5135393;28;20061;-12
2022/10/21 11:10:56;;;;;;;2.05;1.80;;;19.70;50.50;;;;;;5134786;27;20062;-12
2022/10/21 11:13:23;;;;;;;2.13;1.90;;;19.70;50.50;;;;;;5128509;28;20043;-11
2022/10/21 11:15:56;;;;;;;2.28;2.03;;;19.70;50.50;;;;;;5135462;28;20047;-12
2022/10/21 11:18:33;;;;;;;2.42;2.10;;;19.70;50.40;;;;;;5134865;28;20612;-12
2022/10/21 11:21:21;;;;;;;2.72;1.90;;;19.80;50.30;;;;;;5135027;28;20452;-12
2022/10/21 11:23:59;;;;;;;2.17;1.98;;;19.80;50.20;;;;;;5134651;28;20376;-11
2022/10/21 11:26:40;;;;;;;3.53;2.10;;;19.80;50.20;;;;;;5134735;28;20066;-9
2022/10/21 11:29:05;;;;;;;2.20;2.00;;;19.80;50.20;;;;;;5134642;28;20051;-12
2022/10/21 11:31:39;;;;;;;3.00;2.25;;;19.90;50.20;;;;;;5116457;28;20043;-11
2022/10/21 11:34:19;;;;;;;2.95;2.17;;;19.90;50.20;;;;;;5134404;28;20108;-11
2022/10/21 11:36:52;;;;;;;2.65;1.90;;;19.90;50.20;;;;;;5134787;28;20047;-11
2022/10/21 11:39:33;;;;;;;2.25;1.95;;;19.90;50.10;;;;;;5134581;28;20051;-11
2022/10/21 11:42:05;;;;;;;3.33;1.47;;;19.90;50.10;;;;;;5134620;28;20043;-11
2022/10/21 11:44:45;;;;;;;2.83;2.22;;;19.90;50.10;;;;;;5134930;28;20043;-11
2022/10/21 11:47:42;;;;;;;1.50;1.40;;;19.90;50.10;;;;;;5134679;28;20483;-12
2022/10/21 11:50:45;;;;;;;2.67;1.98;;;19.90;50.00;;;;;;5134368;28;20047;-11
2022/10/21 11:53:37;;;;;;;3.50;2.15;;;20.00;50.00;;;;;;5134330;28;20047;-11
2022/10/21 11:56:21;;;;;;;3.90;1.98;;;19.90;50.00;;;;;;5134291;28;20047;-11
2022/10/21 11:59:06;;;;;;;3.10;2.00;;;19.90;50.00;;;;;;5134392;28;20055;-11
2022/10/21 12:01:59;;;;;;;4.55;2.10;;;19.90;50.00;;;;;;5134330;28;20054;-11
2022/10/21 12:04:46;;;;;;;2.80;2.10;;;19.90;50.00;;;;;;5134167;28;20066;-11
2022/10/21 12:07:14;;;;;;;3.60;1.85;;;19.90;50.10;;;;;;5134265;28;20130;-11
2022/10/21 12:09:49;;;;;;;3.05;1.90;;;19.90;50.10;;;;;;5134322;28;20139;-11
2022/10/21 12:12:20;;;;;;;2.03;1.90;;;19.90;50.20;;;;;;5134097;28;20475;-11
2022/10/21 12:14:47;;;;;;;2.55;2.15;;;19.90;50.30;;;;;;5133682;28;20479;-12
2022/10/21 12:17:18;;;;;;;1.85;1.75;;;19.80;50.30;;;;;;5134406;28;20047;-11
2022/10/21 12:19:52;;;;;;;2.42;2.20;;;19.80;50.40;;;;;;5134176;28;20051;-11
2022/10/21 12:22:18;;;;;;;2.50;1.80;;;19.80;50.40;;;;;;5132904;27;20047;-11
2022/10/21 12:25:25;;;;;;;2.30;2.10;;;19.70;50.40;;;;;;5134099;28;20070;-11
2022/10/21 12:28:14;;;;;;;2.75;2.10;;;19.70;50.50;;;;;;5060093;28;20148;-12
2022/10/21 12:30:52;;;;;;;2.05;1.80;;;19.70;50.60;;;;;;5133686;28;20187;-11
2022/10/21 12:33:42;;;;;;;2.35;2.15;;;19.70;50.60;;;;;;5133484;28;20058;-11
2022/10/21 12:36:21;;;;;;;2.33;1.98;;;19.70;50.60;;;;;;5133722;28;20062;-12
2022/10/21 12:38:48;;;;;;;3.45;2.17;;;19.70;50.70;;;;;;5133376;28;20054;-11
2022/10/21 12:41:35;;;;;;;4.65;2.08;;;19.70;50.70;;;;;;5133290;28;20057;-11
2022/10/21 12:44:00;;;;;;;2.92;2.10;;;19.70;50.70;;;;;;5133945;28;20491;-11
2022/10/21 12:46:30;;;;;;;2.70;1.92;;;19.70;50.80;;;;;;5133488;28;20058;-11
2022/10/21 12:48:59;;;;;;;1.92;1.65;;;19.70;50.80;;;;;;5133363;28;20051;-11
2022/10/21 12:51:30;;;;;;;2.58;1.90;;;19.60;50.80;;;;;;5133278;28;20616;-11
2022/10/21 12:54:07;;;;;;;3.55;2.28;;;19.60;50.80;;;;;;5133553;28;20039;-11
2022/10/21 12:56:44;;;;;;;3.33;2.13;;;19.60;50.80;;;;;;5133465;28;20062;-11
2022/10/21 12:59:26;;;;;;;2.72;1.77;;;19.70;50.90;;;;;;5133394;28;20070;-11
2022/10/21 13:02:17;;;;;;;2.95;1.85;;;19.60;50.80;;;;;;5133781;28;20051;-11
2022/10/21 13:04:46;;;;;;;3.28;1.98;;;19.70;50.80;;;;;;5133153;28;20502;-11
2022/10/21 13:07:14;;;;;;;1.92;1.80;;;19.70;50.70;;;;;;5132893;28;20051;-12
2022/10/21 13:10:08;;;;;;;3.00;2.00;;;19.70;50.60;;;;;;5132892;28;20459;-12